createdAt,value
2023-02-11T00:05:07.707Z,22.10
2023-02-11T00:20:17.632Z,20.85
2023-02-11T00:27:52.805Z,19.48
2023-02-11T00:35:26.649Z,21.20
2023-02-11T00:43:01.735Z,20.30
2023-02-11T00:50:35.602Z,19.73
2023-02-11T00:58:10.724Z,20.10
2023-02-11T01:05:44.642Z,21.63
2023-02-11T01:13:20.073Z,21.30
2023-02-11T01:20:54.401Z,21.60
2023-02-11T01:28:31.231Z,20.75
2023-02-11T01:36:06.890Z,20.10
2023-02-11T01:43:44.148Z,21.38
2023-02-11T01:51:21.796Z,21.60
2023-02-11T01:59:04.131Z,19.65
2023-02-11T02:06:45.174Z,19.75
2023-02-11T02:14:20.652Z,22.50
2023-02-11T02:22:34.825Z,21.38
2023-02-11T02:30:47.774Z,21.40
2023-02-11T02:38:28.908Z,21.05
2023-02-11T02:46:13.098Z,21.42
2023-02-11T02:54:03.584Z,21.27
2023-02-11T03:01:47.128Z,22.13
2023-02-11T03:09:28.917Z,22.40
2023-02-11T03:17:06.571Z,24.05
2023-02-11T03:24:43.099Z,25.02
2023-02-11T03:32:24.435Z,22.42
2023-02-11T03:40:04.168Z,23.33
2023-02-11T03:47:41.214Z,23.00
2023-02-11T03:55:19.264Z,25.23
2023-02-11T04:02:53.020Z,25.23
2023-02-11T04:10:28.274Z,26.10
2023-02-11T04:18:02.098Z,24.67
2023-02-11T04:25:37.824Z,27.80
2023-02-11T04:33:11.825Z,27.25
2023-02-11T04:40:47.020Z,25.47
2023-02-11T04:48:20.815Z,26.73
2023-02-11T04:55:56.121Z,28.70
2023-02-11T05:03:30.315Z,26.05
2023-02-11T05:11:05.888Z,29.85
2023-02-11T05:18:40.166Z,26.92
2023-02-11T05:26:16.158Z,29.75
2023-02-11T05:33:50.068Z,30.77
2023-02-11T05:41:25.536Z,28.00
2023-02-11T05:48:59.348Z,33.00
2023-02-11T05:56:34.760Z,31.43
2023-02-11T06:04:08.749Z,31.00
2023-02-11T06:11:43.993Z,31.73
2023-02-11T06:19:17.716Z,33.15
2023-02-11T06:26:53.069Z,36.33
2023-02-11T06:34:27.072Z,33.92
2023-02-11T06:42:02.382Z,34.73
2023-02-11T06:49:36.312Z,36.03
2023-02-11T06:57:11.560Z,35.43
2023-02-11T07:04:45.302Z,33.78
2023-02-11T07:12:20.724Z,34.20
2023-02-11T07:19:54.529Z,34.35
2023-02-11T07:27:29.801Z,35.47
2023-02-11T07:35:03.990Z,32.78
2023-02-11T07:42:40.489Z,35.42
2023-02-11T07:50:14.320Z,33.30
2023-02-11T07:57:49.628Z,37.73
2023-02-11T08:05:23.835Z,35.97
2023-02-11T08:12:59.045Z,34.63
2023-02-11T08:20:32.999Z,34.38
2023-02-11T08:28:09.206Z,34.57
2023-02-11T08:35:43.293Z,33.22
2023-02-11T08:43:18.529Z,31.10
2023-02-11T08:50:52.339Z,32.13
2023-02-11T08:58:27.512Z,32.67
2023-02-11T09:06:01.353Z,30.10
2023-02-11T09:13:36.586Z,31.90
2023-02-11T09:21:11.444Z,30.35
2023-02-11T09:28:47.354Z,28.73
2023-02-11T09:36:23.617Z,31.10
2023-02-11T09:44:02.938Z,29.48
2023-02-11T09:51:44.535Z,32.08
2023-02-11T09:59:20.337Z,32.33
2023-02-11T10:06:57.186Z,29.30
2023-02-11T10:14:51.100Z,29.30
2023-02-11T10:22:29.615Z,28.80
2023-02-11T10:30:10.899Z,26.85
2023-02-11T10:37:44.969Z,28.65
2023-02-11T10:45:26.651Z,29.87
2023-02-11T10:53:19.853Z,26.52
2023-02-11T11:00:58.215Z,27.38
2023-02-11T11:08:44.384Z,29.60
2023-02-11T11:16:23.406Z,26.52
2023-02-11T11:24:01.005Z,28.20
2023-02-11T11:31:48.109Z,27.08
2023-02-11T11:39:25.687Z,27.30
2023-02-11T11:47:23.259Z,27.38
2023-02-11T11:55:06.077Z,27.35
2023-02-11T12:03:11.699Z,24.42
2023-02-11T12:11:04.044Z,24.63
2023-02-11T12:19:00.557Z,24.98
2023-02-11T12:26:42.862Z,22.67
2023-02-11T12:34:35.702Z,23.27
2023-02-11T12:42:40.648Z,22.60
2023-02-11T12:50:22.781Z,23.53
2023-02-11T12:58:00.183Z,21.58
2023-02-11T13:05:41.637Z,23.13
2023-02-11T13:13:20.276Z,22.88
2023-02-11T13:21:04.858Z,22.15
2023-02-11T13:28:50.844Z,21.13
2023-02-11T13:36:27.640Z,20.08
2023-02-11T13:44:19.369Z,22.15
2023-02-11T13:51:56.729Z,22.65
2023-02-11T13:59:48.659Z,19.70
2023-02-11T14:07:47.175Z,20.20
2023-02-11T14:15:23.075Z,16.92
2023-02-11T14:22:58.395Z,18.60
2023-02-11T14:30:43.085Z,18.80
2023-02-11T14:38:28.080Z,19.38
2023-02-11T14:46:02.840Z,19.20
2023-02-11T14:53:41.939Z,17.35
2023-02-11T15:01:31.666Z,19.35
2023-02-11T15:09:14.836Z,17.73
2023-02-11T15:16:50.137Z,16.83
2023-02-11T15:24:28.399Z,18.05
2023-02-11T15:32:07.855Z,18.33
2023-02-11T15:39:43.317Z,18.45
2023-02-11T15:47:22.712Z,20.55
2023-02-11T15:55:01.738Z,19.00
2023-02-11T16:02:44.841Z,19.95
2023-02-11T16:10:26.786Z,16.65
2023-02-11T16:18:01.831Z,17.80
2023-02-11T16:25:37.402Z,15.20
2023-02-11T16:33:12.693Z,18.15
2023-02-11T16:40:50.027Z,16.67
2023-02-11T16:48:23.892Z,16.90
2023-02-11T16:56:00.613Z,13.80
2023-02-11T17:03:37.690Z,14.30
2023-02-11T17:11:16.759Z,13.48
2023-02-11T17:18:50.772Z,13.88
2023-02-11T17:26:26.261Z,13.07
2023-02-11T17:34:00.881Z,14.32
2023-02-11T17:41:37.497Z,13.73
2023-02-11T17:49:11.875Z,12.88
2023-02-11T17:56:50.771Z,13.10
2023-02-11T18:04:24.951Z,13.32
2023-02-11T18:12:00.271Z,13.73
2023-02-11T18:19:36.666Z,11.38
2023-02-11T18:27:12.040Z,9.88
2023-02-11T18:34:46.753Z,10.68
2023-02-11T18:42:22.129Z,10.30
2023-02-11T18:49:56.480Z,10.70
2023-02-11T18:57:31.762Z,11.32
2023-02-11T19:05:06.450Z,10.30
2023-02-11T19:20:15.864Z,10.38
2023-02-11T19:27:51.412Z,9.97
2023-02-11T19:35:27.431Z,8.60
2023-02-11T19:43:02.864Z,10.80
2023-02-11T19:50:36.709Z,10.68
2023-02-11T19:58:11.938Z,11.05
2023-02-11T20:05:47.892Z,12.00
2023-02-11T20:13:23.132Z,9.77
2023-02-11T20:20:57.064Z,10.65
2023-02-11T20:28:32.460Z,10.20
2023-02-11T20:36:09.199Z,9.02
2023-02-11T20:43:47.138Z,9.20
2023-02-11T20:51:23.960Z,11.02
2023-02-11T20:58:59.800Z,8.77
2023-02-11T21:06:36.510Z,7.82
2023-02-11T21:14:13.627Z,8.98
2023-02-11T21:21:47.487Z,6.75
2023-02-11T21:29:22.807Z,7.63
2023-02-11T21:36:56.893Z,6.45
2023-02-11T21:44:32.766Z,6.83
2023-02-11T21:52:06.867Z,6.75
2023-02-11T21:59:42.124Z,6.70
2023-02-11T22:07:15.944Z,6.60
2023-02-11T22:14:51.436Z,7.10
2023-02-11T22:22:25.380Z,6.90
2023-02-11T22:30:00.747Z,6.43
2023-02-11T22:37:34.637Z,6.03
2023-02-11T22:45:11.084Z,5.63
2023-02-11T22:52:44.913Z,5.75
2023-02-11T23:00:22.689Z,4.93
2023-02-11T23:07:56.513Z,4.63
2023-02-11T23:15:32.074Z,5.60
2023-02-11T23:23:06.546Z,4.47
2023-02-11T23:30:42.393Z,4.63
2023-02-11T23:38:17.203Z,6.53
2023-02-11T23:45:53.252Z,4.47
2023-02-11T23:53:27.287Z,4.95
